sensor_id;sensor_type;location;lat;lon;timestamp;P1;durP1;ratioP1;P2;durP2;ratioP2
74102;SDS011;62463;46.166;3.640;2022-07-29T00:00:35;1.52;;;0.85;;
74102;SDS011;62463;46.166;3.640;2022-07-29T00:03:01;2.90;;;0.88;;
74102;SDS011;62463;46.166;3.640;2022-07-29T00:05:28;2.40;;;1.00;;
74102;SDS011;62463;46.166;3.640;2022-07-29T00:08:02;1.70;;;0.95;;
74102;SDS011;62463;46.166;3.640;2022-07-29T00:10:35;1.65;;;1.10;;
74102;SDS011;62463;46.166;3.640;2022-07-29T00:13:02;4.85;;;1.20;;
74102;SDS011;62463;46.166;3.640;2022-07-29T00:15:28;1.75;;;1.10;;
74102;SDS011;62463;46.166;3.640;2022-07-29T00:17:55;3.65;;;1.15;;
74102;SDS011;62463;46.166;3.640;2022-07-29T00:20:21;2.80;;;1.25;;
74102;SDS011;62463;46.166;3.640;2022-07-29T00:22:47;1.45;;;1.00;;
74102;SDS011;62463;46.166;3.640;2022-07-29T00:25:13;1.42;;;0.90;;
74102;SDS011;62463;46.166;3.640;2022-07-29T00:27:40;1.50;;;0.90;;
74102;SDS011;62463;46.166;3.640;2022-07-29T00:30:06;1.65;;;0.90;;
74102;SDS011;62463;46.166;3.640;2022-07-29T00:32:33;2.20;;;1.00;;
74102;SDS011;62463;46.166;3.640;2022-07-29T00:34:59;4.40;;;1.08;;
74102;SDS011;62463;46.166;3.640;2022-07-29T00:37:44;3.40;;;1.10;;
74102;SDS011;62463;46.166;3.640;2022-07-29T00:40:10;2.83;;;1.20;;
74102;SDS011;62463;46.166;3.640;2022-07-29T00:42:48;1.88;;;1.10;;
74102;SDS011;62463;46.166;3.640;2022-07-29T00:45:16;2.20;;;0.98;;
74102;SDS011;62463;46.166;3.640;2022-07-29T00:47:42;2.95;;;1.10;;
74102;SDS011;62463;46.166;3.640;2022-07-29T00:50:09;1.67;;;1.02;;
74102;SDS011;62463;46.166;3.640;2022-07-29T00:52:37;2.42;;;1.05;;
74102;SDS011;62463;46.166;3.640;2022-07-29T00:55:06;1.98;;;0.93;;
74102;SDS011;62463;46.166;3.640;2022-07-29T00:57:34;2.05;;;1.02;;
74102;SDS011;62463;46.166;3.640;2022-07-29T01:00:02;2.22;;;0.90;;
74102;SDS011;62463;46.166;3.640;2022-07-29T01:02:29;1.48;;;1.08;;
74102;SDS011;62463;46.166;3.640;2022-07-29T01:04:56;2.92;;;1.13;;
74102;SDS011;62463;46.166;3.640;2022-07-29T01:07:23;3.05;;;1.10;;
74102;SDS011;62463;46.166;3.640;2022-07-29T01:09:51;4.05;;;1.02;;
74102;SDS011;62463;46.166;3.640;2022-07-29T01:29:03;1.45;;;1.10;;
74102;SDS011;62463;46.166;3.640;2022-07-29T01:31:59;1.20;;;0.93;;
74102;SDS011;62463;46.166;3.640;2022-07-29T01:37:30;2.42;;;1.30;;
74102;SDS011;62463;46.166;3.640;2022-07-29T01:40:14;1.38;;;1.00;;
74102;SDS011;62463;46.166;3.640;2022-07-29T01:42:48;1.65;;;1.20;;
74102;SDS011;62463;46.166;3.640;2022-07-29T01:45:20;1.45;;;0.88;;
74102;SDS011;62463;46.166;3.640;2022-07-29T01:47:58;2.47;;;0.95;;
74102;SDS011;62463;46.166;3.640;2022-07-29T01:50:36;4.22;;;0.90;;
74102;SDS011;62463;46.166;3.640;2022-07-29T01:53:09;2.75;;;1.05;;
74102;SDS011;62463;46.166;3.640;2022-07-29T01:55:42;4.20;;;1.30;;
74102;SDS011;62463;46.166;3.640;2022-07-29T01:58:11;2.53;;;1.20;;
74102;SDS011;62463;46.166;3.640;2022-07-29T02:00:40;1.95;;;1.30;;
74102;SDS011;62463;46.166;3.640;2022-07-29T02:03:09;3.25;;;1.20;;
74102;SDS011;62463;46.166;3.640;2022-07-29T02:05:38;5.00;;;1.05;;
74102;SDS011;62463;46.166;3.640;2022-07-29T02:08:07;1.70;;;1.10;;
74102;SDS011;62463;46.166;3.640;2022-07-29T02:10:35;1.52;;;0.98;;
74102;SDS011;62463;46.166;3.640;2022-07-29T02:13:03;1.90;;;1.08;;
74102;SDS011;62463;46.166;3.640;2022-07-29T02:15:32;2.65;;;1.10;;
74102;SDS011;62463;46.166;3.640;2022-07-29T02:18:17;2.55;;;1.20;;
74102;SDS011;62463;46.166;3.640;2022-07-29T02:20:50;3.33;;;1.05;;
74102;SDS011;62463;46.166;3.640;2022-07-29T02:23:20;1.30;;;0.90;;
74102;SDS011;62463;46.166;3.640;2022-07-29T02:25:52;2.25;;;1.10;;
74102;SDS011;62463;46.166;3.640;2022-07-29T02:28:21;3.22;;;1.02;;
74102;SDS011;62463;46.166;3.640;2022-07-29T02:30:50;3.05;;;1.23;;
74102;SDS011;62463;46.166;3.640;2022-07-29T02:33:18;2.20;;;1.10;;
74102;SDS011;62463;46.166;3.640;2022-07-29T02:35:46;2.80;;;1.10;;
74102;SDS011;62463;46.166;3.640;2022-07-29T02:38:16;2.35;;;1.20;;
74102;SDS011;62463;46.166;3.640;2022-07-29T02:41:08;1.17;;;0.95;;
74102;SDS011;62463;46.166;3.640;2022-07-29T02:43:42;3.00;;;1.60;;
74102;SDS011;62463;46.166;3.640;2022-07-29T02:46:12;2.13;;;1.05;;
74102;SDS011;62463;46.166;3.640;2022-07-29T02:48:41;1.65;;;1.20;;
74102;SDS011;62463;46.166;3.640;2022-07-29T02:51:25;6.93;;;1.33;;
74102;SDS011;62463;46.166;3.640;2022-07-29T02:53:58;2.08;;;1.20;;
74102;SDS011;62463;46.166;3.640;2022-07-29T02:56:32;1.90;;;1.30;;
74102;SDS011;62463;46.166;3.640;2022-07-29T02:59:01;1.42;;;1.00;;
74102;SDS011;62463;46.166;3.640;2022-07-29T03:01:33;1.25;;;1.10;;
74102;SDS011;62463;46.166;3.640;2022-07-29T03:04:17;3.75;;;1.30;;
74102;SDS011;62463;46.166;3.640;2022-07-29T03:06:48;2.42;;;1.20;;
74102;SDS011;62463;46.166;3.640;2022-07-29T03:09:22;2.00;;;1.25;;
74102;SDS011;62463;46.166;3.640;2022-07-29T03:11:50;1.60;;;1.00;;
74102;SDS011;62463;46.166;3.640;2022-07-29T03:21:03;2.45;;;1.10;;
74102;SDS011;62463;46.166;3.640;2022-07-29T03:23:29;2.92;;;1.48;;
74102;SDS011;62463;46.166;3.640;2022-07-29T03:26:04;2.40;;;1.55;;
74102;SDS011;62463;46.166;3.640;2022-07-29T03:28:33;3.95;;;1.50;;
74102;SDS011;62463;46.166;3.640;2022-07-29T03:31:00;1.88;;;1.25;;
74102;SDS011;62463;46.166;3.640;2022-07-29T03:33:26;1.52;;;1.27;;
74102;SDS011;62463;46.166;3.640;2022-07-29T03:35:54;1.70;;;1.52;;
74102;SDS011;62463;46.166;3.640;2022-07-29T03:38:20;1.88;;;1.25;;
74102;SDS011;62463;46.166;3.640;2022-07-29T03:40:56;1.27;;;1.17;;
74102;SDS011;62463;46.166;3.640;2022-07-29T03:43:30;3.50;;;1.52;;
74102;SDS011;62463;46.166;3.640;2022-07-29T03:46:00;1.95;;;1.58;;
74102;SDS011;62463;46.166;3.640;2022-07-29T03:48:29;1.52;;;1.42;;
74102;SDS011;62463;46.166;3.640;2022-07-29T03:51:00;1.98;;;1.20;;
74102;SDS011;62463;46.166;3.640;2022-07-29T03:53:28;3.72;;;1.33;;
74102;SDS011;62463;46.166;3.640;2022-07-29T03:55:55;4.63;;;1.30;;
74102;SDS011;62463;46.166;3.640;2022-07-29T03:58:26;3.55;;;1.85;;
74102;SDS011;62463;46.166;3.640;2022-07-29T04:00:53;2.38;;;1.42;;
74102;SDS011;62463;46.166;3.640;2022-07-29T04:03:20;2.92;;;1.25;;
74102;SDS011;62463;46.166;3.640;2022-07-29T04:08:32;2.25;;;1.75;;
74102;SDS011;62463;46.166;3.640;2022-07-29T04:10:59;1.90;;;1.30;;
74102;SDS011;62463;46.166;3.640;2022-07-29T04:13:26;2.25;;;1.30;;
74102;SDS011;62463;46.166;3.640;2022-07-29T04:15:52;1.88;;;1.30;;
74102;SDS011;62463;46.166;3.640;2022-07-29T04:18:19;2.28;;;1.42;;
74102;SDS011;62463;46.166;3.640;2022-07-29T04:20:45;1.92;;;1.00;;
74102;SDS011;62463;46.166;3.640;2022-07-29T04:23:22;1.70;;;1.30;;
74102;SDS011;62463;46.166;3.640;2022-07-29T04:25:51;2.90;;;1.40;;
74102;SDS011;62463;46.166;3.640;2022-07-29T04:28:17;1.75;;;1.10;;
74102;SDS011;62463;46.166;3.640;2022-07-29T04:30:43;2.90;;;1.27;;
74102;SDS011;62463;46.166;3.640;2022-07-29T04:33:10;2.03;;;1.40;;
74102;SDS011;62463;46.166;3.640;2022-07-29T04:35:36;3.42;;;1.35;;
74102;SDS011;62463;46.166;3.640;2022-07-29T04:38:03;3.60;;;1.45;;
74102;SDS011;62463;46.166;3.640;2022-07-29T04:40:35;3.42;;;1.20;;
74102;SDS011;62463;46.166;3.640;2022-07-29T04:43:07;3.40;;;1.40;;
74102;SDS011;62463;46.166;3.640;2022-07-29T04:45:33;5.40;;;1.10;;
74102;SDS011;62463;46.166;3.640;2022-07-29T04:48:00;2.05;;;1.30;;
74102;SDS011;62463;46.166;3.640;2022-07-29T04:50:26;3.20;;;1.25;;
74102;SDS011;62463;46.166;3.640;2022-07-29T04:52:52;3.70;;;1.40;;
74102;SDS011;62463;46.166;3.640;2022-07-29T04:55:18;1.77;;;1.17;;
74102;SDS011;62463;46.166;3.640;2022-07-29T04:57:44;3.10;;;1.30;;
74102;SDS011;62463;46.166;3.640;2022-07-29T05:00:11;3.38;;;1.45;;
74102;SDS011;62463;46.166;3.640;2022-07-29T05:02:37;2.25;;;1.40;;
74102;SDS011;62463;46.166;3.640;2022-07-29T05:05:04;1.88;;;1.38;;
74102;SDS011;62463;46.166;3.640;2022-07-29T05:07:31;5.38;;;1.40;;
74102;SDS011;62463;46.166;3.640;2022-07-29T05:09:58;3.40;;;1.40;;
74102;SDS011;62463;46.166;3.640;2022-07-29T05:12:28;4.05;;;1.40;;
74102;SDS011;62463;46.166;3.640;2022-07-29T05:14:54;1.48;;;1.00;;
74102;SDS011;62463;46.166;3.640;2022-07-29T05:17:20;1.70;;;1.38;;
74102;SDS011;62463;46.166;3.640;2022-07-29T05:19:47;3.45;;;1.25;;
74102;SDS011;62463;46.166;3.640;2022-07-29T05:22:17;5.70;;;1.58;;
74102;SDS011;62463;46.166;3.640;2022-07-29T05:24:46;2.97;;;1.20;;
74102;SDS011;62463;46.166;3.640;2022-07-29T05:27:12;2.25;;;1.45;;
74102;SDS011;62463;46.166;3.640;2022-07-29T05:29:40;5.25;;;1.70;;
74102;SDS011;62463;46.166;3.640;2022-07-29T05:32:06;2.88;;;1.42;;
74102;SDS011;62463;46.166;3.640;2022-07-29T05:34:33;1.88;;;1.50;;
74102;SDS011;62463;46.166;3.640;2022-07-29T05:36:59;2.42;;;1.40;;
74102;SDS011;62463;46.166;3.640;2022-07-29T05:39:25;1.70;;;1.58;;
74102;SDS011;62463;46.166;3.640;2022-07-29T05:41:51;5.47;;;1.40;;
74102;SDS011;62463;46.166;3.640;2022-07-29T05:44:18;3.45;;;1.40;;
74102;SDS011;62463;46.166;3.640;2022-07-29T05:46:44;2.78;;;1.40;;
74102;SDS011;62463;46.166;3.640;2022-07-29T05:49:10;1.85;;;1.40;;
74102;SDS011;62463;46.166;3.640;2022-07-29T05:51:42;3.03;;;1.10;;
74102;SDS011;62463;46.166;3.640;2022-07-29T05:54:08;4.97;;;1.60;;
74102;SDS011;62463;46.166;3.640;2022-07-29T05:56:35;4.47;;;1.40;;
74102;SDS011;62463;46.166;3.640;2022-07-29T05:59:02;3.97;;;1.58;;
74102;SDS011;62463;46.166;3.640;2022-07-29T06:01:28;3.92;;;1.20;;
74102;SDS011;62463;46.166;3.640;2022-07-29T06:03:53;4.95;;;1.80;;
74102;SDS011;62463;46.166;3.640;2022-07-29T06:06:19;2.83;;;1.40;;
74102;SDS011;62463;46.166;3.640;2022-07-29T06:08:45;1.30;;;1.20;;
74102;SDS011;62463;46.166;3.640;2022-07-29T06:11:11;4.53;;;1.20;;
74102;SDS011;62463;46.166;3.640;2022-07-29T06:13:36;4.07;;;1.50;;
74102;SDS011;62463;46.166;3.640;2022-07-29T06:16:02;3.33;;;1.30;;
74102;SDS011;62463;46.166;3.640;2022-07-29T06:18:29;3.83;;;1.50;;
74102;SDS011;62463;46.166;3.640;2022-07-29T06:20:54;3.13;;;1.17;;
74102;SDS011;62463;46.166;3.640;2022-07-29T06:23:20;2.30;;;1.40;;
74102;SDS011;62463;46.166;3.640;2022-07-29T06:25:47;3.75;;;1.50;;
74102;SDS011;62463;46.166;3.640;2022-07-29T06:28:13;2.50;;;1.73;;
74102;SDS011;62463;46.166;3.640;2022-07-29T06:30:39;2.67;;;1.70;;
74102;SDS011;62463;46.166;3.640;2022-07-29T06:33:05;3.75;;;1.40;;
74102;SDS011;62463;46.166;3.640;2022-07-29T06:35:34;3.45;;;1.63;;
74102;SDS011;62463;46.166;3.640;2022-07-29T06:38:02;2.60;;;1.65;;
74102;SDS011;62463;46.166;3.640;2022-07-29T06:40:30;3.78;;;1.50;;
74102;SDS011;62463;46.166;3.640;2022-07-29T06:43:14;1.95;;;1.55;;
74102;SDS011;62463;46.166;3.640;2022-07-29T06:45:40;3.83;;;1.50;;
74102;SDS011;62463;46.166;3.640;2022-07-29T06:48:08;3.60;;;1.80;;
74102;SDS011;62463;46.166;3.640;2022-07-29T06:50:34;2.67;;;1.48;;
74102;SDS011;62463;46.166;3.640;2022-07-29T06:53:00;1.77;;;1.45;;
74102;SDS011;62463;46.166;3.640;2022-07-29T06:55:25;3.72;;;1.60;;
74102;SDS011;62463;46.166;3.640;2022-07-29T06:57:51;5.55;;;2.00;;
74102;SDS011;62463;46.166;3.640;2022-07-29T07:00:17;2.25;;;1.70;;
74102;SDS011;62463;46.166;3.640;2022-07-29T07:02:44;3.40;;;1.33;;
74102;SDS011;62463;46.166;3.640;2022-07-29T07:05:10;2.85;;;1.50;;
74102;SDS011;62463;46.166;3.640;2022-07-29T07:07:36;3.08;;;1.67;;
74102;SDS011;62463;46.166;3.640;2022-07-29T07:10:03;4.30;;;1.50;;
74102;SDS011;62463;46.166;3.640;2022-07-29T07:12:29;5.07;;;1.60;;
74102;SDS011;62463;46.166;3.640;2022-07-29T07:14:55;2.65;;;1.58;;
74102;SDS011;62463;46.166;3.640;2022-07-29T07:17:21;1.90;;;1.50;;
74102;SDS011;62463;46.166;3.640;2022-07-29T07:19:48;3.17;;;1.60;;
74102;SDS011;62463;46.166;3.640;2022-07-29T07:22:13;2.60;;;1.67;;
74102;SDS011;62463;46.166;3.640;2022-07-29T07:24:43;1.88;;;1.58;;
74102;SDS011;62463;46.166;3.640;2022-07-29T07:27:10;2.58;;;2.13;;
74102;SDS011;62463;46.166;3.640;2022-07-29T07:29:36;2.90;;;1.90;;
74102;SDS011;62463;46.166;3.640;2022-07-29T07:32:06;3.08;;;2.08;;
74102;SDS011;62463;46.166;3.640;2022-07-29T07:34:32;3.30;;;1.73;;
74102;SDS011;62463;46.166;3.640;2022-07-29T07:36:59;2.15;;;1.50;;
74102;SDS011;62463;46.166;3.640;2022-07-29T07:39:25;4.35;;;1.90;;
74102;SDS011;62463;46.166;3.640;2022-07-29T07:41:51;5.75;;;1.77;;
74102;SDS011;62463;46.166;3.640;2022-07-29T07:44:18;4.32;;;1.60;;
74102;SDS011;62463;46.166;3.640;2022-07-29T07:46:44;3.60;;;1.65;;
74102;SDS011;62463;46.166;3.640;2022-07-29T07:49:10;1.98;;;1.40;;
74102;SDS011;62463;46.166;3.640;2022-07-29T07:51:36;1.50;;;1.38;;
74102;SDS011;62463;46.166;3.640;2022-07-29T07:54:03;2.10;;;1.55;;
74102;SDS011;62463;46.166;3.640;2022-07-29T07:56:30;2.25;;;1.40;;
74102;SDS011;62463;46.166;3.640;2022-07-29T07:58:56;6.35;;;1.42;;
74102;SDS011;62463;46.166;3.640;2022-07-29T08:01:22;2.13;;;1.17;;
74102;SDS011;62463;46.166;3.640;2022-07-29T08:03:49;3.00;;;1.30;;
74102;SDS011;62463;46.166;3.640;2022-07-29T08:06:15;2.38;;;1.48;;
74102;SDS011;62463;46.166;3.640;2022-07-29T08:08:41;2.72;;;1.33;;
74102;SDS011;62463;46.166;3.640;2022-07-29T08:11:07;1.90;;;1.40;;
74102;SDS011;62463;46.166;3.640;2022-07-29T08:13:34;2.40;;;1.30;;
74102;SDS011;62463;46.166;3.640;2022-07-29T08:16:01;1.77;;;1.33;;
74102;SDS011;62463;46.166;3.640;2022-07-29T08:18:36;3.22;;;1.50;;
74102;SDS011;62463;46.166;3.640;2022-07-29T08:21:03;2.83;;;1.40;;
74102;SDS011;62463;46.166;3.640;2022-07-29T08:23:30;3.60;;;1.50;;
74102;SDS011;62463;46.166;3.640;2022-07-29T08:26:04;4.30;;;1.70;;
74102;SDS011;62463;46.166;3.640;2022-07-29T08:28:36;2.45;;;1.40;;
74102;SDS011;62463;46.166;3.640;2022-07-29T08:31:04;3.97;;;2.05;;
74102;SDS011;62463;46.166;3.640;2022-07-29T08:33:31;3.15;;;1.58;;
74102;SDS011;62463;46.166;3.640;2022-07-29T08:35:59;2.15;;;1.13;;
74102;SDS011;62463;46.166;3.640;2022-07-29T08:38:25;2.83;;;1.50;;
74102;SDS011;62463;46.166;3.640;2022-07-29T08:40:52;1.33;;;1.23;;
74102;SDS011;62463;46.166;3.640;2022-07-29T08:43:19;3.35;;;1.70;;
74102;SDS011;62463;46.166;3.640;2022-07-29T08:45:47;4.40;;;1.27;;
74102;SDS011;62463;46.166;3.640;2022-07-29T08:48:16;2.50;;;1.40;;
74102;SDS011;62463;46.166;3.640;2022-07-29T08:50:44;2.80;;;1.50;;
74102;SDS011;62463;46.166;3.640;2022-07-29T08:53:21;1.75;;;1.20;;
74102;SDS011;62463;46.166;3.640;2022-07-29T08:55:58;3.67;;;1.40;;
74102;SDS011;62463;46.166;3.640;2022-07-29T08:58:26;2.05;;;1.52;;
74102;SDS011;62463;46.166;3.640;2022-07-29T09:00:57;2.05;;;1.52;;
74102;SDS011;62463;46.166;3.640;2022-07-29T09:03:31;3.05;;;1.50;;
74102;SDS011;62463;46.166;3.640;2022-07-29T09:06:01;3.85;;;1.48;;
74102;SDS011;62463;46.166;3.640;2022-07-29T09:08:30;2.03;;;1.30;;
74102;SDS011;62463;46.166;3.640;2022-07-29T09:10:57;6.15;;;2.25;;
74102;SDS011;62463;46.166;3.640;2022-07-29T09:13:25;5.13;;;1.60;;
74102;SDS011;62463;46.166;3.640;2022-07-29T09:15:53;4.57;;;1.80;;
74102;SDS011;62463;46.166;3.640;2022-07-29T09:18:47;4.15;;;2.08;;
74102;SDS011;62463;46.166;3.640;2022-07-29T09:21:13;3.15;;;2.05;;
74102;SDS011;62463;46.166;3.640;2022-07-29T09:24:09;3.83;;;1.90;;
74102;SDS011;62463;46.166;3.640;2022-07-29T09:26:38;5.53;;;1.90;;
74102;SDS011;62463;46.166;3.640;2022-07-29T09:31:41;4.18;;;1.90;;
74102;SDS011;62463;46.166;3.640;2022-07-29T09:34:11;4.00;;;1.88;;
74102;SDS011;62463;46.166;3.640;2022-07-29T09:36:40;2.20;;;1.92;;
74102;SDS011;62463;46.166;3.640;2022-07-29T09:39:08;3.10;;;1.98;;
74102;SDS011;62463;46.166;3.640;2022-07-29T09:44:15;4.07;;;1.80;;
74102;SDS011;62463;46.166;3.640;2022-07-29T09:46:58;2.88;;;1.70;;
74102;SDS011;62463;46.166;3.640;2022-07-29T09:49:32;3.08;;;1.80;;
74102;SDS011;62463;46.166;3.640;2022-07-29T09:52:08;3.55;;;2.45;;
74102;SDS011;62463;46.166;3.640;2022-07-29T09:54:36;2.13;;;1.63;;
74102;SDS011;62463;46.166;3.640;2022-07-29T09:57:21;4.43;;;2.22;;
74102;SDS011;62463;46.166;3.640;2022-07-29T09:59:55;3.55;;;1.85;;
74102;SDS011;62463;46.166;3.640;2022-07-29T10:02:22;5.43;;;1.95;;
74102;SDS011;62463;46.166;3.640;2022-07-29T10:04:52;3.75;;;2.17;;
74102;SDS011;62463;46.166;3.640;2022-07-29T10:07:18;3.65;;;1.67;;
74102;SDS011;62463;46.166;3.640;2022-07-29T10:09:54;3.13;;;1.40;;
74102;SDS011;62463;46.166;3.640;2022-07-29T10:12:22;5.32;;;1.85;;
74102;SDS011;62463;46.166;3.640;2022-07-29T10:14:49;3.35;;;1.60;;
74102;SDS011;62463;46.166;3.640;2022-07-29T10:17:16;5.25;;;1.77;;
74102;SDS011;62463;46.166;3.640;2022-07-29T10:19:44;3.08;;;1.95;;
74102;SDS011;62463;46.166;3.640;2022-07-29T10:22:10;1.55;;;1.42;;
74102;SDS011;62463;46.166;3.640;2022-07-29T10:24:37;2.50;;;1.60;;
74102;SDS011;62463;46.166;3.640;2022-07-29T10:27:04;4.30;;;1.98;;
74102;SDS011;62463;46.166;3.640;2022-07-29T10:29:33;4.60;;;2.00;;
74102;SDS011;62463;46.166;3.640;2022-07-29T10:32:08;5.57;;;1.80;;
74102;SDS011;62463;46.166;3.640;2022-07-29T10:43:31;4.57;;;1.88;;
74102;SDS011;62463;46.166;3.640;2022-07-29T10:46:01;6.65;;;2.80;;
74102;SDS011;62463;46.166;3.640;2022-07-29T10:48:28;2.78;;;2.38;;
74102;SDS011;62463;46.166;3.640;2022-07-29T10:51:04;5.45;;;2.75;;
74102;SDS011;62463;46.166;3.640;2022-07-29T10:56:25;6.28;;;2.70;;
74102;SDS011;62463;46.166;3.640;2022-07-29T11:01:49;2.65;;;2.30;;
74102;SDS011;62463;46.166;3.640;2022-07-29T11:04:22;3.88;;;2.10;;
74102;SDS011;62463;46.166;3.640;2022-07-29T11:07:11;4.07;;;2.30;;
74102;SDS011;62463;46.166;3.640;2022-07-29T11:09:41;5.55;;;2.28;;
74102;SDS011;62463;46.166;3.640;2022-07-29T11:15:01;5.07;;;2.22;;
74102;SDS011;62463;46.166;3.640;2022-07-29T11:17:28;4.63;;;2.13;;
74102;SDS011;62463;46.166;3.640;2022-07-29T11:22:57;4.90;;;1.80;;
74102;SDS011;62463;46.166;3.640;2022-07-29T11:25:24;4.03;;;1.90;;
74102;SDS011;62463;46.166;3.640;2022-07-29T11:27:51;2.25;;;1.48;;
74102;SDS011;62463;46.166;3.640;2022-07-29T11:30:19;4.72;;;1.30;;
74102;SDS011;62463;46.166;3.640;2022-07-29T11:32:45;4.13;;;1.70;;
74102;SDS011;62463;46.166;3.640;2022-07-29T11:35:13;4.65;;;1.40;;
74102;SDS011;62463;46.166;3.640;2022-07-29T11:37:42;3.55;;;1.55;;
74102;SDS011;62463;46.166;3.640;2022-07-29T11:40:12;1.73;;;1.20;;
74102;SDS011;62463;46.166;3.640;2022-07-29T11:42:40;4.10;;;1.60;;
74102;SDS011;62463;46.166;3.640;2022-07-29T11:45:11;2.38;;;1.15;;
74102;SDS011;62463;46.166;3.640;2022-07-29T11:50:12;2.75;;;1.27;;
74102;SDS011;62463;46.166;3.640;2022-07-29T11:52:43;4.78;;;1.20;;
74102;SDS011;62463;46.166;3.640;2022-07-29T11:55:14;1.80;;;1.38;;
74102;SDS011;62463;46.166;3.640;2022-07-29T12:00:12;3.10;;;1.50;;
74102;SDS011;62463;46.166;3.640;2022-07-29T12:02:46;1.52;;;1.40;;
74102;SDS011;62463;46.166;3.640;2022-07-29T12:05:11;3.47;;;1.50;;
74102;SDS011;62463;46.166;3.640;2022-07-29T12:07:38;3.53;;;1.30;;
74102;SDS011;62463;46.166;3.640;2022-07-29T12:10:05;4.97;;;1.67;;
74102;SDS011;62463;46.166;3.640;2022-07-29T12:12:32;4.05;;;1.40;;
74102;SDS011;62463;46.166;3.640;2022-07-29T12:15:10;4.75;;;1.42;;
74102;SDS011;62463;46.166;3.640;2022-07-29T12:17:40;2.65;;;1.35;;
74102;SDS011;62463;46.166;3.640;2022-07-29T12:20:07;2.85;;;1.20;;
74102;SDS011;62463;46.166;3.640;2022-07-29T12:22:37;4.22;;;1.50;;
74102;SDS011;62463;46.166;3.640;2022-07-29T12:25:10;2.83;;;1.35;;
74102;SDS011;62463;46.166;3.640;2022-07-29T12:27:39;3.63;;;1.48;;
74102;SDS011;62463;46.166;3.640;2022-07-29T12:30:07;3.38;;;1.13;;
74102;SDS011;62463;46.166;3.640;2022-07-29T12:32:34;1.13;;;1.00;;
74102;SDS011;62463;46.166;3.640;2022-07-29T12:35:03;2.90;;;1.30;;
74102;SDS011;62463;46.166;3.640;2022-07-29T12:37:32;4.13;;;1.75;;
74102;SDS011;62463;46.166;3.640;2022-07-29T12:40:05;2.60;;;1.27;;
74102;SDS011;62463;46.166;3.640;2022-07-29T12:42:33;3.05;;;1.30;;
74102;SDS011;62463;46.166;3.640;2022-07-29T12:45:00;3.03;;;1.45;;
74102;SDS011;62463;46.166;3.640;2022-07-29T12:47:27;3.35;;;1.40;;
74102;SDS011;62463;46.166;3.640;2022-07-29T12:50:09;2.38;;;1.45;;
74102;SDS011;62463;46.166;3.640;2022-07-29T12:52:37;1.73;;;1.20;;
74102;SDS011;62463;46.166;3.640;2022-07-29T12:55:03;3.08;;;1.30;;
74102;SDS011;62463;46.166;3.640;2022-07-29T12:57:30;1.65;;;1.10;;
74102;SDS011;62463;46.166;3.640;2022-07-29T13:00:15;3.97;;;1.15;;
74102;SDS011;62463;46.166;3.640;2022-07-29T13:02:53;3.85;;;1.52;;
74102;SDS011;62463;46.166;3.640;2022-07-29T13:05:21;4.07;;;1.40;;
74102;SDS011;62463;46.166;3.640;2022-07-29T13:07:47;4.90;;;1.50;;
74102;SDS011;62463;46.166;3.640;2022-07-29T13:10:14;5.13;;;1.50;;
74102;SDS011;62463;46.166;3.640;2022-07-29T13:15:27;6.85;;;1.83;;
74102;SDS011;62463;46.166;3.640;2022-07-29T13:17:52;2.45;;;1.27;;
74102;SDS011;62463;46.166;3.640;2022-07-29T13:20:18;3.47;;;1.50;;
74102;SDS011;62463;46.166;3.640;2022-07-29T13:22:48;1.80;;;1.23;;
74102;SDS011;62463;46.166;3.640;2022-07-29T13:25:14;7.07;;;1.58;;
74102;SDS011;62463;46.166;3.640;2022-07-29T13:27:49;5.25;;;1.83;;
74102;SDS011;62463;46.166;3.640;2022-07-29T13:30:15;5.93;;;1.40;;
74102;SDS011;62463;46.166;3.640;2022-07-29T13:32:41;3.78;;;1.45;;
74102;SDS011;62463;46.166;3.640;2022-07-29T13:35:07;2.75;;;1.48;;
74102;SDS011;62463;46.166;3.640;2022-07-29T13:37:34;3.42;;;1.65;;
74102;SDS011;62463;46.166;3.640;2022-07-29T13:40:03;2.40;;;1.40;;
74102;SDS011;62463;46.166;3.640;2022-07-29T13:42:31;3.42;;;1.50;;
74102;SDS011;62463;46.166;3.640;2022-07-29T13:44:57;3.25;;;1.42;;
74102;SDS011;62463;46.166;3.640;2022-07-29T13:47:24;1.77;;;1.30;;
74102;SDS011;62463;46.166;3.640;2022-07-29T13:49:50;3.15;;;1.50;;
74102;SDS011;62463;46.166;3.640;2022-07-29T13:52:17;4.60;;;1.50;;
74102;SDS011;62463;46.166;3.640;2022-07-29T13:54:43;4.18;;;1.40;;
74102;SDS011;62463;46.166;3.640;2022-07-29T13:57:09;2.92;;;1.35;;
74102;SDS011;62463;46.166;3.640;2022-07-29T13:59:35;2.72;;;1.35;;
74102;SDS011;62463;46.166;3.640;2022-07-29T14:02:02;2.92;;;1.45;;
74102;SDS011;62463;46.166;3.640;2022-07-29T14:04:28;5.63;;;1.40;;
74102;SDS011;62463;46.166;3.640;2022-07-29T14:06:54;3.20;;;1.25;;
74102;SDS011;62463;46.166;3.640;2022-07-29T14:09:20;3.38;;;1.40;;
74102;SDS011;62463;46.166;3.640;2022-07-29T14:11:45;5.00;;;1.88;;
74102;SDS011;62463;46.166;3.640;2022-07-29T14:14:14;3.67;;;1.50;;
74102;SDS011;62463;46.166;3.640;2022-07-29T14:16:40;2.33;;;1.48;;
74102;SDS011;62463;46.166;3.640;2022-07-29T14:19:06;2.85;;;1.17;;
74102;SDS011;62463;46.166;3.640;2022-07-29T14:21:32;5.60;;;1.55;;
74102;SDS011;62463;46.166;3.640;2022-07-29T14:23:59;2.13;;;1.23;;
74102;SDS011;62463;46.166;3.640;2022-07-29T14:26:25;3.25;;;1.48;;
74102;SDS011;62463;46.166;3.640;2022-07-29T14:28:51;2.15;;;1.40;;
74102;SDS011;62463;46.166;3.640;2022-07-29T14:31:17;2.35;;;1.23;;
74102;SDS011;62463;46.166;3.640;2022-07-29T14:33:42;3.90;;;1.60;;
74102;SDS011;62463;46.166;3.640;2022-07-29T14:36:08;2.25;;;1.30;;
74102;SDS011;62463;46.166;3.640;2022-07-29T14:38:35;3.85;;;1.30;;
74102;SDS011;62463;46.166;3.640;2022-07-29T14:41:02;4.07;;;1.63;;
74102;SDS011;62463;46.166;3.640;2022-07-29T14:43:28;2.47;;;1.20;;
74102;SDS011;62463;46.166;3.640;2022-07-29T14:45:54;1.38;;;1.10;;
74102;SDS011;62463;46.166;3.640;2022-07-29T14:48:20;2.38;;;1.08;;
74102;SDS011;62463;46.166;3.640;2022-07-29T14:50:46;2.25;;;1.50;;
74102;SDS011;62463;46.166;3.640;2022-07-29T14:53:11;2.20;;;1.52;;
74102;SDS011;62463;46.166;3.640;2022-07-29T14:55:38;3.08;;;1.40;;
74102;SDS011;62463;46.166;3.640;2022-07-29T14:58:06;2.08;;;1.30;;
74102;SDS011;62463;46.166;3.640;2022-07-29T15:00:31;1.27;;;1.17;;
74102;SDS011;62463;46.166;3.640;2022-07-29T15:02:59;2.92;;;1.30;;
74102;SDS011;62463;46.166;3.640;2022-07-29T15:05:26;2.45;;;1.20;;
74102;SDS011;62463;46.166;3.640;2022-07-29T15:07:52;1.92;;;1.10;;
74102;SDS011;62463;46.166;3.640;2022-07-29T15:10:19;2.38;;;1.17;;
74102;SDS011;62463;46.166;3.640;2022-07-29T15:12:44;3.47;;;1.30;;
74102;SDS011;62463;46.166;3.640;2022-07-29T15:15:10;1.95;;;1.00;;
74102;SDS011;62463;46.166;3.640;2022-07-29T15:17:36;3.33;;;1.40;;
74102;SDS011;62463;46.166;3.640;2022-07-29T15:20:03;2.05;;;1.10;;
74102;SDS011;62463;46.166;3.640;2022-07-29T15:22:30;2.35;;;1.30;;
74102;SDS011;62463;46.166;3.640;2022-07-29T15:24:55;1.60;;;1.10;;
74102;SDS011;62463;46.166;3.640;2022-07-29T15:27:24;1.85;;;1.20;;
74102;SDS011;62463;46.166;3.640;2022-07-29T15:29:50;3.15;;;1.20;;
74102;SDS011;62463;46.166;3.640;2022-07-29T15:32:16;2.08;;;1.10;;
74102;SDS011;62463;46.166;3.640;2022-07-29T15:34:42;1.88;;;1.10;;
74102;SDS011;62463;46.166;3.640;2022-07-29T15:37:08;2.15;;;1.10;;
74102;SDS011;62463;46.166;3.640;2022-07-29T15:39:35;1.35;;;1.00;;
74102;SDS011;62463;46.166;3.640;2022-07-29T15:50:14;1.30;;;1.20;;
74102;SDS011;62463;46.166;3.640;2022-07-29T15:52:41;1.90;;;1.00;;
74102;SDS011;62463;46.166;3.640;2022-07-29T15:55:08;3.85;;;1.55;;
74102;SDS011;62463;46.166;3.640;2022-07-29T15:57:34;1.98;;;1.25;;
74102;SDS011;62463;46.166;3.640;2022-07-29T16:00:00;3.78;;;1.30;;
74102;SDS011;62463;46.166;3.640;2022-07-29T16:02:26;2.38;;;1.17;;
74102;SDS011;62463;46.166;3.640;2022-07-29T16:04:52;3.83;;;1.13;;
74102;SDS011;62463;46.166;3.640;2022-07-29T16:07:17;2.17;;;0.85;;